createdAt,value
2022-10-19T00:00:42.968Z,100390.56
2022-10-19T00:03:24.978Z,100390.25
2022-10-19T00:06:18.281Z,100399.25
2022-10-19T00:08:52.823Z,100385.81
2022-10-19T00:11:35.701Z,100382.09
2022-10-19T00:14:17.184Z,100378.75
2022-10-19T00:16:59.078Z,100376.44
2022-10-19T00:19:38.970Z,100370.03
2022-10-19T00:22:20.912Z,100364.31
2022-10-19T00:25:05.187Z,100354.84
2022-10-19T00:27:44.633Z,100356.19
2022-10-19T00:30:25.362Z,100349.97
2022-10-19T00:33:04.827Z,100348.94
2022-10-19T00:35:42.737Z,100358.69
2022-10-19T00:38:18.106Z,100352.66
2022-10-19T00:40:57.138Z,100344.56
2022-10-19T00:43:52.288Z,100337.53
2022-10-19T00:46:27.257Z,100335.88
2022-10-19T00:49:25.727Z,100330.50
2022-10-19T00:52:09.161Z,100324.47
2022-10-19T00:54:45.900Z,100323.72
2022-10-19T00:57:24.875Z,100322.44
2022-10-19T01:00:00.859Z,100327.72
2022-10-19T01:02:35.773Z,100317.16
2022-10-19T01:05:20.936Z,100310.75
2022-10-19T01:07:51.538Z,100319.28
2022-10-19T01:10:44.277Z,100311.13
2022-10-19T01:13:44.803Z,100313.41
2022-10-19T01:16:56.240Z,100302.59
2022-10-19T01:19:46.022Z,100302.06
2022-10-19T01:22:50.135Z,100300.47
2022-10-19T01:25:31.797Z,100294.66
2022-10-19T01:28:13.062Z,100292.41
2022-10-19T01:31:12.539Z,100291.00
2022-10-19T01:34:18.440Z,100292.81
2022-10-19T01:37:39.949Z,100288.19
2022-10-19T01:40:32.802Z,100295.63
2022-10-19T01:43:29.764Z,100289.81
2022-10-19T01:46:20.808Z,100290.63
2022-10-19T01:49:09.505Z,100279.88
2022-10-19T01:51:52.586Z,100283.00
2022-10-19T01:54:26.905Z,100283.19
2022-10-19T01:57:13.546Z,100283.13
2022-10-19T01:59:54.854Z,100287.56
2022-10-19T02:02:30.518Z,100286.06
2022-10-19T02:05:08.105Z,100283.78
2022-10-19T02:07:49.907Z,100288.88
2022-10-19T02:10:28.610Z,100285.38
2022-10-19T02:13:06.296Z,100289.63
2022-10-19T02:15:50.206Z,100297.53
2022-10-19T02:18:35.831Z,100289.16
2022-10-19T02:21:09.498Z,100290.06
2022-10-19T02:23:40.971Z,100292.88
2022-10-19T02:29:13.851Z,100288.97
2022-10-19T02:31:52.292Z,100284.97
2022-10-19T02:34:27.480Z,100285.16
2022-10-19T02:37:04.796Z,100297.41
2022-10-19T02:39:46.060Z,100276.81
2022-10-19T02:42:36.778Z,100284.03
2022-10-19T02:45:24.473Z,100278.06
2022-10-19T02:48:21.403Z,100268.16
2022-10-19T02:51:01.852Z,100281.66
2022-10-19T02:53:36.390Z,100277.50
2022-10-19T02:56:12.276Z,100283.91
2022-10-19T02:58:47.448Z,100283.34
2022-10-19T03:01:27.876Z,100292.13
2022-10-19T03:04:07.722Z,100288.78
2022-10-19T03:06:42.811Z,100283.94
2022-10-19T03:09:19.307Z,100278.56
2022-10-19T03:11:54.796Z,100276.34
2022-10-19T03:14:32.050Z,100285.94
2022-10-19T03:17:11.432Z,100288.06
2022-10-19T03:19:43.598Z,100281.28
2022-10-19T03:22:26.678Z,100282.38
2022-10-19T03:25:02.742Z,100283.50
2022-10-19T03:27:48.718Z,100292.44
2022-10-19T03:30:28.564Z,100289.94
2022-10-19T03:33:10.411Z,100286.72
2022-10-19T03:36:09.851Z,100299.91
2022-10-19T03:38:44.551Z,100287.31
2022-10-19T03:41:17.360Z,100294.75
2022-10-19T03:43:55.480Z,100293.84
2022-10-19T03:46:25.029Z,100282.22
2022-10-19T03:49:09.542Z,100284.47
2022-10-19T03:51:51.943Z,100284.03
2022-10-19T03:54:28.470Z,100279.66
2022-10-19T03:57:04.164Z,100285.31
2022-10-19T03:59:40.476Z,100276.78
2022-10-19T04:02:26.409Z,100291.06
2022-10-19T04:05:09.638Z,100296.19
2022-10-19T04:07:49.701Z,100294.97
2022-10-19T04:10:35.333Z,100287.00
2022-10-19T04:13:12.547Z,100284.59
2022-10-19T04:15:49.997Z,100294.91
2022-10-19T04:18:30.410Z,100288.59
2022-10-19T04:21:07.319Z,100288.13
2022-10-19T04:23:48.779Z,100281.63
2022-10-19T04:26:24.278Z,100283.03
2022-10-19T04:29:08.537Z,100283.47
2022-10-19T04:31:52.624Z,100275.63
2022-10-19T04:34:24.693Z,100275.13
2022-10-19T04:37:01.552Z,100271.72
2022-10-19T04:39:44.730Z,100279.28
2022-10-19T04:42:17.075Z,100281.69
2022-10-19T04:44:54.430Z,100272.81
2022-10-19T04:47:42.870Z,100276.88
2022-10-19T04:50:23.214Z,100276.91
2022-10-19T04:53:03.543Z,100279.47
2022-10-19T04:55:39.380Z,100279.72
2022-10-19T04:58:21.561Z,100293.16
2022-10-19T05:00:57.341Z,100307.31
2022-10-19T05:03:32.176Z,100312.69
2022-10-19T05:06:12.194Z,100305.25
2022-10-19T05:08:42.459Z,100290.47
2022-10-19T05:11:18.949Z,100306.00
2022-10-19T05:13:52.454Z,100310.00
2022-10-19T05:16:27.056Z,100305.63
2022-10-19T05:19:05.108Z,100303.97
2022-10-19T05:21:45.270Z,100307.56
2022-10-19T05:24:18.499Z,100316.16
2022-10-19T05:26:53.278Z,100310.47
2022-10-19T05:29:41.201Z,100311.22
2022-10-19T05:32:33.172Z,100326.94
2022-10-19T05:35:22.426Z,100328.81
2022-10-19T05:38:03.957Z,100335.66
2022-10-19T05:40:51.549Z,100334.81
2022-10-19T05:43:38.803Z,100334.19
2022-10-19T05:46:25.336Z,100335.09
2022-10-19T05:49:02.286Z,100328.22
2022-10-19T05:51:37.240Z,100335.69
2022-10-19T05:54:16.532Z,100330.47
2022-10-19T05:56:57.110Z,100338.81
2022-10-19T05:59:31.936Z,100348.28
2022-10-19T06:02:09.320Z,100341.00
2022-10-19T06:04:47.670Z,100344.91
2022-10-19T06:07:31.195Z,100341.78
2022-10-19T06:10:05.088Z,100351.53
2022-10-19T06:12:37.346Z,100359.34
2022-10-19T06:15:27.111Z,100355.47
2022-10-19T06:18:01.986Z,100358.88
2022-10-19T06:20:49.462Z,100363.47
2022-10-19T06:23:28.376Z,100374.88
2022-10-19T06:26:06.179Z,100364.34
2022-10-19T06:28:55.581Z,100372.84
2022-10-19T06:31:38.389Z,100377.28
2022-10-19T06:34:17.956Z,100381.09
2022-10-19T06:36:58.723Z,100372.88
2022-10-19T06:39:42.919Z,100373.00
2022-10-19T06:42:26.810Z,100384.28
2022-10-19T06:45:04.224Z,100389.38
2022-10-19T06:47:44.833Z,100380.31
2022-10-19T06:50:24.098Z,100390.13
2022-10-19T06:53:05.115Z,100390.16
2022-10-19T06:55:48.041Z,100397.28
2022-10-19T06:58:30.896Z,100390.00
2022-10-19T07:01:12.966Z,100404.56
2022-10-19T07:03:58.934Z,100403.31
2022-10-19T07:06:39.838Z,100417.69
2022-10-19T07:09:19.787Z,100424.53
2022-10-19T07:12:04.601Z,100415.31
2022-10-19T07:14:40.393Z,100416.53
2022-10-19T07:17:22.119Z,100425.84
2022-10-19T07:20:02.503Z,100426.00
2022-10-19T07:22:46.551Z,100428.41
2022-10-19T07:25:26.782Z,100434.56
2022-10-19T07:27:59.482Z,100441.56
2022-10-19T07:30:41.388Z,100446.06
2022-10-19T07:33:27.756Z,100451.81
2022-10-19T07:36:23.728Z,100448.13
2022-10-19T07:38:56.307Z,100451.13
2022-10-19T07:41:39.082Z,100451.00
2022-10-19T07:44:21.047Z,100452.91
2022-10-19T07:47:01.730Z,100436.84
2022-10-19T07:49:43.296Z,100439.72
2022-10-19T07:52:18.477Z,100435.66
2022-10-19T07:54:56.361Z,100429.66
2022-10-19T07:57:33.798Z,100425.94
2022-10-19T08:00:10.298Z,100416.06
2022-10-19T08:03:04.958Z,100419.06
2022-10-19T08:05:48.985Z,100417.94
2022-10-19T08:08:29.698Z,100424.84
2022-10-19T08:11:41.264Z,100433.28
2022-10-19T08:14:19.370Z,100429.53
2022-10-19T08:16:54.678Z,100430.16
2022-10-19T08:19:44.425Z,100422.94
2022-10-19T08:22:19.054Z,100420.94
2022-10-19T08:24:59.356Z,100433.13
2022-10-19T08:27:30.792Z,100431.84
2022-10-19T08:30:05.623Z,100433.69
2022-10-19T08:32:52.278Z,100433.78
2022-10-19T08:35:35.671Z,100436.84
2022-10-19T08:38:12.811Z,100438.00
2022-10-19T08:40:51.241Z,100443.34
2022-10-19T08:43:46.533Z,100439.31
2022-10-19T08:46:42.278Z,100436.81
2022-10-19T08:49:28.681Z,100429.38
2022-10-19T08:52:05.964Z,100435.28
2022-10-19T08:55:19.774Z,100438.44
2022-10-19T08:58:08.749Z,100424.19
2022-10-19T09:01:02.837Z,100422.06
2022-10-19T09:03:56.138Z,100424.41
2022-10-19T09:06:44.591Z,100418.13
2022-10-19T09:09:35.476Z,100420.34
2022-10-19T09:12:18.225Z,100424.84
2022-10-19T09:15:07.412Z,100416.97
2022-10-19T09:17:44.877Z,100420.75
2022-10-19T09:20:27.309Z,100420.59
2022-10-19T09:23:28.334Z,100424.56
2022-10-19T09:26:06.636Z,100426.22
2022-10-19T09:28:55.882Z,100423.97
2022-10-19T09:31:47.374Z,100425.66
2022-10-19T09:34:45.732Z,100428.78
2022-10-19T09:37:25.661Z,100426.72
2022-10-19T09:40:09.447Z,100428.31
2022-10-19T09:42:42.316Z,100423.25
2022-10-19T09:45:35.385Z,100424.28
2022-10-19T09:48:36.970Z,100416.97
2022-10-19T09:51:13.272Z,100414.91
2022-10-19T09:53:59.982Z,100409.16
2022-10-19T09:56:43.699Z,100403.28
2022-10-19T09:59:23.575Z,100407.88
2022-10-19T10:02:37.505Z,100398.06
2022-10-19T10:05:28.051Z,100397.13
2022-10-19T10:08:03.128Z,100400.31
2022-10-19T10:10:48.113Z,100393.06
2022-10-19T10:13:28.158Z,100392.41
2022-10-19T10:16:13.276Z,100378.91
2022-10-19T10:19:12.321Z,100380.63
2022-10-19T10:22:00.283Z,100380.94
2022-10-19T10:24:53.998Z,100377.00
2022-10-19T10:27:38.675Z,100373.91
2022-10-19T10:30:17.277Z,100372.06
2022-10-19T10:33:08.045Z,100368.88
2022-10-19T10:36:19.049Z,100365.13
2022-10-19T10:38:58.677Z,100364.50
2022-10-19T10:41:29.061Z,100356.56
2022-10-19T10:44:21.528Z,100357.25
2022-10-19T10:47:03.926Z,100355.47
2022-10-19T10:49:42.657Z,100359.63
2022-10-19T10:52:29.491Z,100353.09
2022-10-19T10:55:17.630Z,100357.28
2022-10-19T10:58:17.158Z,100357.13
2022-10-19T11:00:56.009Z,100354.97
2022-10-19T11:03:52.346Z,100349.34
2022-10-19T11:06:44.387Z,100341.81
2022-10-19T11:09:49.041Z,100341.25
2022-10-19T11:12:37.001Z,100342.31
2022-10-19T11:15:37.078Z,100328.44
2022-10-19T11:18:31.265Z,100328.75
2022-10-19T11:21:38.618Z,100323.50
2022-10-19T11:24:41.194Z,100326.88
2022-10-19T11:28:10.902Z,100318.25
2022-10-19T11:31:12.717Z,100321.66
2022-10-19T11:34:04.007Z,100303.81
2022-10-19T11:37:03.897Z,100309.03
2022-10-19T11:39:57.818Z,100297.84
2022-10-19T11:42:59.267Z,100300.56
2022-10-19T11:45:37.908Z,100294.28
2022-10-19T11:49:05.778Z,100303.19
2022-10-19T11:51:46.274Z,100291.94
2022-10-19T11:54:49.868Z,100295.50
2022-10-19T11:57:31.235Z,100295.78
2022-10-19T12:00:39.086Z,100286.63
2022-10-19T12:03:43.402Z,100281.81
2022-10-19T12:06:40.947Z,100276.91
2022-10-19T12:09:58.313Z,100271.19
2022-10-19T12:12:53.494Z,100272.88
2022-10-19T12:15:40.613Z,100262.00
2022-10-19T12:18:41.936Z,100259.81
2022-10-19T12:21:37.399Z,100265.84
2022-10-19T12:24:22.280Z,100260.88
2022-10-19T12:27:02.564Z,100245.72
2022-10-19T12:29:48.341Z,100262.47
2022-10-19T12:32:31.094Z,100250.31
2022-10-19T12:35:38.241Z,100251.00
2022-10-19T12:38:40.940Z,100249.09
2022-10-19T12:41:35.323Z,100248.81
2022-10-19T12:44:15.772Z,100250.31
2022-10-19T12:47:00.077Z,100245.28
2022-10-19T12:49:48.844Z,100249.47
2022-10-19T12:52:48.605Z,100247.34
2022-10-19T12:55:34.978Z,100247.00
2022-10-19T12:58:21.489Z,100247.50
2022-10-19T13:01:12.354Z,100244.69
2022-10-19T13:03:53.974Z,100243.78
2022-10-19T13:06:26.501Z,100242.94
2022-10-19T13:09:08.432Z,100242.00
2022-10-19T13:12:16.224Z,100237.88
2022-10-19T13:15:01.022Z,100234.88
2022-10-19T13:18:01.668Z,100232.09
2022-10-19T13:21:00.441Z,100235.78
2022-10-19T13:23:48.819Z,100231.94
2022-10-19T13:26:41.739Z,100239.09
2022-10-19T13:29:40.387Z,100236.22
2022-10-19T13:32:43.460Z,100246.63
2022-10-19T13:35:36.276Z,100249.09
2022-10-19T13:38:29.402Z,100235.41
2022-10-19T13:41:33.516Z,100249.13
2022-10-19T13:44:35.380Z,100239.94
2022-10-19T13:47:28.207Z,100231.53
2022-10-19T13:50:05.147Z,100233.72
2022-10-19T13:52:54.354Z,100230.38
2022-10-19T13:56:00.525Z,100233.56
2022-10-19T13:58:44.998Z,100238.19
2022-10-19T14:01:52.483Z,100234.47
2022-10-19T14:04:54.565Z,100233.03
2022-10-19T14:08:09.854Z,100233.59
2022-10-19T14:11:00.707Z,100243.13
2022-10-19T14:13:47.319Z,100249.03
2022-10-19T14:16:29.339Z,100248.34
2022-10-19T14:19:21.177Z,100232.66
2022-10-19T14:22:03.440Z,100239.41
2022-10-19T14:25:17.838Z,100231.13
2022-10-19T14:28:04.151Z,100241.59
2022-10-19T14:30:47.774Z,100236.91
2022-10-19T14:33:34.383Z,100231.78
2022-10-19T14:36:31.888Z,100234.16
2022-10-19T14:39:24.579Z,100237.22
2022-10-19T14:42:18.346Z,100234.72
2022-10-19T14:45:03.349Z,100234.28
2022-10-19T14:47:55.877Z,100234.88
2022-10-19T14:53:39.523Z,100236.81
2022-10-19T14:56:36.405Z,100234.06
2022-10-19T14:59:43.716Z,100242.19
2022-10-19T15:03:05.872Z,100244.06
2022-10-19T15:05:42.992Z,100244.19
2022-10-19T15:08:35.479Z,100243.34
2022-10-19T15:11:12.429Z,100238.94
2022-10-19T15:14:03.097Z,100241.59
2022-10-19T15:17:05.657Z,100254.59
2022-10-19T15:19:51.458Z,100261.91
2022-10-19T15:22:46.033Z,100271.16
2022-10-19T15:25:53.180Z,100269.75
2022-10-19T15:28:44.706Z,100274.50
2022-10-19T15:31:28.577Z,100267.41
2022-10-19T15:34:13.949Z,100268.50
2022-10-19T15:37:03.467Z,100270.19
2022-10-19T15:39:43.320Z,100266.97
2022-10-19T15:42:48.745Z,100268.19
2022-10-19T15:45:40.527Z,100261.56
2022-10-19T15:48:18.419Z,100261.34
2022-10-19T15:51:06.375Z,100262.53
2022-10-19T15:53:47.319Z,100256.97
2022-10-19T15:56:26.940Z,100253.41
2022-10-19T15:59:09.482Z,100258.13
2022-10-19T16:01:52.601Z,100275.69
2022-10-19T16:04:32.419Z,100288.41
2022-10-19T16:07:17.595Z,100297.69
2022-10-19T16:09:56.023Z,100295.06
2022-10-19T16:12:42.539Z,100297.28
2022-10-19T16:15:32.109Z,100302.56
2022-10-19T16:18:21.939Z,100310.41
2022-10-19T16:21:08.439Z,100311.34
2022-10-19T16:23:44.297Z,100306.94
2022-10-19T16:26:27.192Z,100313.84
2022-10-19T16:29:07.980Z,100316.38
2022-10-19T16:31:51.319Z,100326.81
2022-10-19T16:34:38.270Z,100326.31
2022-10-19T16:37:18.908Z,100323.34
2022-10-19T16:39:56.103Z,100321.09
2022-10-19T16:42:43.361Z,100326.56
2022-10-19T16:45:19.395Z,100327.53
2022-10-19T16:47:58.506Z,100325.03
2022-10-19T16:50:45.208Z,100341.03
2022-10-19T16:53:42.698Z,100336.75
2022-10-19T16:56:31.795Z,100347.00
2022-10-19T16:59:26.079Z,100359.53
2022-10-19T17:02:22.382Z,100356.03
2022-10-19T17:04:57.180Z,100355.84
2022-10-19T17:07:48.219Z,100369.59
2022-10-19T17:10:45.266Z,100376.47
2022-10-19T17:13:19.891Z,100375.84
2022-10-19T17:16:10.362Z,100380.84
2022-10-19T17:18:45.942Z,100388.34
2022-10-19T17:21:31.726Z,100381.66
2022-10-19T17:24:11.327Z,100387.41
2022-10-19T17:26:46.292Z,100391.13
2022-10-19T17:29:38.078Z,100396.75
2022-10-19T17:32:14.856Z,100398.16
2022-10-19T17:34:54.695Z,100390.28
2022-10-19T17:37:38.076Z,100403.56
2022-10-19T17:40:26.310Z,100407.97
2022-10-19T17:43:01.018Z,100404.88
2022-10-19T17:45:48.285Z,100406.53
2022-10-19T17:48:33.513Z,100416.72
2022-10-19T17:51:26.491Z,100410.25
2022-10-19T17:54:08.940Z,100421.91
2022-10-19T17:56:46.293Z,100422.69
2022-10-19T17:59:34.653Z,100424.47
2022-10-19T18:02:07.725Z,100415.09
2022-10-19T18:04:51.776Z,100419.66
2022-10-19T18:07:42.191Z,100414.63
2022-10-19T18:10:26.509Z,100422.09
2022-10-19T18:13:09.805Z,100420.91
2022-10-19T18:15:57.885Z,100417.38
2022-10-19T18:18:43.630Z,100412.25
2022-10-19T18:21:25.928Z,100411.13
2022-10-19T18:24:10.131Z,100422.22
2022-10-19T18:26:51.870Z,100420.34
2022-10-19T18:29:34.812Z,100425.13
2022-10-19T18:32:21.762Z,100448.19
2022-10-19T18:35:02.740Z,100459.84
2022-10-19T18:37:45.861Z,100451.91
2022-10-19T18:40:29.476Z,100460.38
2022-10-19T18:43:11.826Z,100459.88
2022-10-19T18:46:07.427Z,100462.94
2022-10-19T18:48:50.350Z,100467.94
2022-10-19T18:51:28.654Z,100466.47
2022-10-19T18:54:17.797Z,100457.97
2022-10-19T18:57:05.334Z,100453.66
2022-10-19T18:59:43.585Z,100456.94
2022-10-19T19:02:22.358Z,100456.72
2022-10-19T19:05:13.160Z,100459.19
2022-10-19T19:07:48.108Z,100465.22
2022-10-19T19:10:32.756Z,100465.59
2022-10-19T19:13:12.453Z,100463.06
2022-10-19T19:15:50.962Z,100461.94
2022-10-19T19:18:23.940Z,100463.41
2022-10-19T19:21:08.614Z,100465.66
2022-10-19T19:23:43.729Z,100472.19
2022-10-19T19:26:27.256Z,100468.19
2022-10-19T19:29:05.496Z,100466.63
2022-10-19T19:31:39.393Z,100469.09
2022-10-19T19:34:12.761Z,100473.56
2022-10-19T19:36:51.005Z,100486.81
2022-10-19T19:39:32.348Z,100485.94
2022-10-19T19:42:13.316Z,100500.94
2022-10-19T19:44:48.041Z,100501.59
2022-10-19T19:47:25.571Z,100495.53
2022-10-19T19:50:03.124Z,100499.34
2022-10-19T19:52:43.705Z,100507.09
2022-10-19T19:55:16.500Z,100513.97
2022-10-19T19:57:54.490Z,100519.34
2022-10-19T20:00:34.459Z,100519.06
2022-10-19T20:03:13.303Z,100523.50
2022-10-19T20:05:54.424Z,100521.94
2022-10-19T20:08:34.740Z,100517.34
2022-10-19T20:11:17.382Z,100520.78
2022-10-19T20:14:08.367Z,100531.94
2022-10-19T20:16:45.672Z,100534.06
2022-10-19T20:19:20.023Z,100529.81
2022-10-19T20:22:14.156Z,100541.66
2022-10-19T20:24:51.572Z,100540.16
2022-10-19T20:27:25.829Z,100543.22
2022-10-19T20:30:04.332Z,100545.34
2022-10-19T20:32:36.522Z,100548.53
2022-10-19T20:35:19.823Z,100546.44
2022-10-19T20:38:10.944Z,100542.56
2022-10-19T20:40:56.704Z,100549.00
2022-10-19T20:43:34.601Z,100551.75
2022-10-19T20:46:14.913Z,100554.81
2022-10-19T20:48:54.761Z,100556.38
2022-10-19T20:51:35.317Z,100556.13
2022-10-19T20:54:14.525Z,100571.06
2022-10-19T20:56:41.922Z,100576.16
2022-10-19T20:59:22.671Z,100576.38
2022-10-19T21:01:59.658Z,100576.94
2022-10-19T21:04:34.551Z,100572.38
2022-10-19T21:07:15.296Z,100566.53
2022-10-19T21:09:50.357Z,100568.28
2022-10-19T21:12:30.611Z,100573.00
2022-10-19T21:15:11.401Z,100581.38
2022-10-19T21:17:49.241Z,100569.16
2022-10-19T21:20:31.345Z,100579.88
2022-10-19T21:23:06.144Z,100576.34
2022-10-19T21:25:41.228Z,100583.91
2022-10-19T21:28:24.352Z,100582.06
2022-10-19T21:31:09.347Z,100577.41
2022-10-19T21:33:50.901Z,100585.09
2022-10-19T21:36:36.881Z,100578.38
2022-10-19T21:39:17.259Z,100585.94
2022-10-19T21:42:03.721Z,100581.56
2022-10-19T21:44:54.046Z,100583.69
2022-10-19T21:47:36.090Z,100594.41
2022-10-19T21:50:19.863Z,100603.84
2022-10-19T21:52:54.841Z,100594.91
2022-10-19T21:55:42.398Z,100598.13
2022-10-19T21:58:22.931Z,100589.69
2022-10-19T22:01:00.760Z,100589.00
2022-10-19T22:03:38.045Z,100590.72
2022-10-19T22:06:18.916Z,100594.72
2022-10-19T22:08:58.802Z,100597.06
2022-10-19T22:11:37.667Z,100599.59
2022-10-19T22:14:19.777Z,100592.72
2022-10-19T22:17:00.220Z,100586.19
2022-10-19T22:19:32.535Z,100583.69
2022-10-19T22:22:13.134Z,100588.03
2022-10-19T22:24:48.088Z,100586.69
2022-10-19T22:27:29.295Z,100586.00
2022-10-19T22:30:06.333Z,100594.69
2022-10-19T22:32:39.258Z,100607.25
2022-10-19T22:35:22.996Z,100589.34
2022-10-19T22:38:10.415Z,100595.06
2022-10-19T22:40:48.380Z,100589.56
2022-10-19T22:43:26.208Z,100595.78
2022-10-19T22:46:11.682Z,100598.50
2022-10-19T22:48:49.187Z,100596.63
2022-10-19T22:51:32.779Z,100603.38
2022-10-19T22:54:08.529Z,100603.22
2022-10-19T22:56:52.179Z,100602.19
2022-10-19T22:59:33.163Z,100592.31
2022-10-19T23:02:16.535Z,100592.78
2022-10-19T23:04:57.507Z,100593.31
2022-10-19T23:07:38.196Z,100610.41
2022-10-19T23:10:33.456Z,100605.03
2022-10-19T23:13:13.438Z,100604.88
2022-10-19T23:15:53.223Z,100606.53
2022-10-19T23:18:36.277Z,100605.88
2022-10-19T23:21:11.488Z,100602.38
2022-10-19T23:23:58.085Z,100609.41
2022-10-19T23:26:36.158Z,100606.22
2022-10-19T23:29:23.296Z,100609.75
2022-10-19T23:32:01.639Z,100609.56
2022-10-19T23:34:41.175Z,100613.91
2022-10-19T23:37:23.643Z,100622.75
2022-10-19T23:40:04.407Z,100619.56
2022-10-19T23:42:40.174Z,100620.91
2022-10-19T23:45:25.146Z,100619.88
2022-10-19T23:48:05.002Z,100625.34
2022-10-19T23:50:45.116Z,100635.56
2022-10-19T23:53:23.318Z,100636.72
2022-10-19T23:56:09.305Z,100637.88
2022-10-19T23:58:50.241Z,100640.53
